sensor_id;sensor_type;location;lat;lon;timestamp;P1;durP1;ratioP1;P2;durP2;ratioP2
76357;SDS011;65185;21.060;105.826;2023-04-02T00:01:54;123.40;;;41.63;;
76357;SDS011;65185;21.060;105.826;2023-04-02T00:04:21;141.98;;;43.72;;
76357;SDS011;65185;21.060;105.826;2023-04-02T00:06:54;146.10;;;45.08;;
76357;SDS011;65185;21.060;105.826;2023-04-02T00:09:41;135.90;;;41.58;;
76357;SDS011;65185;21.060;105.826;2023-04-02T00:12:12;129.50;;;40.67;;
76357;SDS011;65185;21.060;105.826;2023-04-02T00:17:15;144.18;;;50.35;;
76357;SDS011;65185;21.060;105.826;2023-04-02T00:19:47;150.80;;;45.78;;
76357;SDS011;65185;21.060;105.826;2023-04-02T00:22:27;143.85;;;45.72;;
76357;SDS011;65185;21.060;105.826;2023-04-02T00:24:59;139.65;;;45.22;;
76357;SDS011;65185;21.060;105.826;2023-04-02T00:27:29;131.75;;;41.65;;
76357;SDS011;65185;21.060;105.826;2023-04-02T00:29:57;119.20;;;41.47;;
76357;SDS011;65185;21.060;105.826;2023-04-02T00:32:25;128.27;;;42.95;;
76357;SDS011;65185;21.060;105.826;2023-04-02T00:34:54;152.15;;;47.80;;
76357;SDS011;65185;21.060;105.826;2023-04-02T00:37:22;132.45;;;44.05;;
76357;SDS011;65185;21.060;105.826;2023-04-02T00:40:01;162.38;;;50.75;;
76357;SDS011;65185;21.060;105.826;2023-04-02T00:42:34;149.10;;;46.83;;
76357;SDS011;65185;21.060;105.826;2023-04-02T00:45:04;167.05;;;51.45;;
76357;SDS011;65185;21.060;105.826;2023-04-02T00:47:43;168.45;;;54.58;;
76357;SDS011;65185;21.060;105.826;2023-04-02T00:52:40;167.80;;;52.53;;
76357;SDS011;65185;21.060;105.826;2023-04-02T00:55:21;171.63;;;54.85;;
76357;SDS011;65185;21.060;105.826;2023-04-02T00:57:49;182.88;;;55.80;;
76357;SDS011;65185;21.060;105.826;2023-04-02T01:00:49;169.82;;;57.20;;
76357;SDS011;65185;21.060;105.826;2023-04-02T01:05:47;169.98;;;55.78;;
76357;SDS011;65185;21.060;105.826;2023-04-02T01:14:11;170.63;;;52.10;;
76357;SDS011;65185;21.060;105.826;2023-04-02T01:16:59;180.50;;;54.38;;
76357;SDS011;65185;21.060;105.826;2023-04-02T01:20:27;155.52;;;52.03;;
76357;SDS011;65185;21.060;105.826;2023-04-02T01:22:49;147.75;;;50.03;;
76357;SDS011;65185;21.060;105.826;2023-04-02T01:28:26;157.52;;;52.20;;
76357;SDS011;65185;21.060;105.826;2023-04-02T01:31:00;136.70;;;45.92;;
76357;SDS011;65185;21.060;105.826;2023-04-02T01:33:29;145.23;;;47.58;;
76357;SDS011;65185;21.060;105.826;2023-04-02T01:36:04;149.75;;;48.78;;
76357;SDS011;65185;21.060;105.826;2023-04-02T01:38:33;138.77;;;45.72;;
76357;SDS011;65185;21.060;105.826;2023-04-02T01:42:28;143.23;;;46.90;;
76357;SDS011;65185;21.060;105.826;2023-04-02T01:44:38;144.00;;;47.67;;
76357;SDS011;65185;21.060;105.826;2023-04-02T01:47:26;142.60;;;48.53;;
76357;SDS011;65185;21.060;105.826;2023-04-02T01:50:01;153.48;;;47.72;;
76357;SDS011;65185;21.060;105.826;2023-04-02T01:52:35;143.88;;;49.00;;
76357;SDS011;65185;21.060;105.826;2023-04-02T01:55:06;134.23;;;46.53;;
76357;SDS011;65185;21.060;105.826;2023-04-02T01:57:40;140.75;;;47.67;;
76357;SDS011;65185;21.060;105.826;2023-04-02T02:00:11;146.00;;;51.55;;
76357;SDS011;65185;21.060;105.826;2023-04-02T02:02:40;140.60;;;48.03;;
76357;SDS011;65185;21.060;105.826;2023-04-02T02:05:20;159.40;;;47.83;;
76357;SDS011;65185;21.060;105.826;2023-04-02T02:07:48;135.02;;;43.88;;
76357;SDS011;65185;21.060;105.826;2023-04-02T02:10:17;146.25;;;45.70;;
76357;SDS011;65185;21.060;105.826;2023-04-02T02:12:50;113.80;;;42.22;;
76357;SDS011;65185;21.060;105.826;2023-04-02T02:15:18;162.18;;;51.25;;
76357;SDS011;65185;21.060;105.826;2023-04-02T02:20:13;150.48;;;48.83;;
76357;SDS011;65185;21.060;105.826;2023-04-02T02:22:44;122.93;;;45.97;;
76357;SDS011;65185;21.060;105.826;2023-04-02T02:25:14;133.68;;;44.22;;
76357;SDS011;65185;21.060;105.826;2023-04-02T02:28:01;129.40;;;43.22;;
76357;SDS011;65185;21.060;105.826;2023-04-02T02:35:51;112.25;;;39.38;;
76357;SDS011;65185;21.060;105.826;2023-04-02T02:41:02;132.20;;;42.60;;
76357;SDS011;65185;21.060;105.826;2023-04-02T02:43:33;110.00;;;40.13;;
76357;SDS011;65185;21.060;105.826;2023-04-02T02:46:04;104.53;;;39.78;;
76357;SDS011;65185;21.060;105.826;2023-04-02T02:48:36;100.93;;;39.85;;
76357;SDS011;65185;21.060;105.826;2023-04-02T02:51:05;112.32;;;41.35;;
76357;SDS011;65185;21.060;105.826;2023-04-02T02:53:51;112.68;;;41.60;;
76357;SDS011;65185;21.060;105.826;2023-04-02T02:56:21;106.28;;;40.47;;
76357;SDS011;65185;21.060;105.826;2023-04-02T02:58:50;122.53;;;44.10;;
76357;SDS011;65185;21.060;105.826;2023-04-02T03:01:18;113.63;;;40.88;;
76357;SDS011;65185;21.060;105.826;2023-04-02T03:03:46;108.75;;;41.65;;
76357;SDS011;65185;21.060;105.826;2023-04-02T03:06:14;117.57;;;44.10;;
76357;SDS011;65185;21.060;105.826;2023-04-02T03:09:01;106.72;;;42.90;;
76357;SDS011;65185;21.060;105.826;2023-04-02T03:19:42;103.03;;;44.13;;
76357;SDS011;65185;21.060;105.826;2023-04-02T03:22:34;110.35;;;45.47;;
76357;SDS011;65185;21.060;105.826;2023-04-02T03:27:55;98.90;;;44.28;;
76357;SDS011;65185;21.060;105.826;2023-04-02T03:33:14;105.05;;;47.60;;
76357;SDS011;65185;21.060;105.826;2023-04-02T03:35:52;86.38;;;43.03;;
76357;SDS011;65185;21.060;105.826;2023-04-02T03:38:42;99.05;;;47.67;;
76357;SDS011;65185;21.060;105.826;2023-04-02T03:41:19;92.30;;;48.70;;
76357;SDS011;65185;21.060;105.826;2023-04-02T03:43:50;96.80;;;49.85;;
76357;SDS011;65185;21.060;105.826;2023-04-02T03:46:35;92.35;;;49.80;;
76357;SDS011;65185;21.060;105.826;2023-04-02T03:49:08;96.03;;;56.88;;
76357;SDS011;65185;21.060;105.826;2023-04-02T03:52:04;91.93;;;52.83;;
76357;SDS011;65185;21.060;105.826;2023-04-02T03:54:36;92.28;;;55.15;;
76357;SDS011;65185;21.060;105.826;2023-04-02T03:57:04;97.47;;;56.95;;
76357;SDS011;65185;21.060;105.826;2023-04-02T03:59:45;94.72;;;53.53;;
76357;SDS011;65185;21.060;105.826;2023-04-02T04:04:58;89.25;;;55.55;;
76357;SDS011;65185;21.060;105.826;2023-04-02T04:09:56;86.47;;;51.80;;
76357;SDS011;65185;21.060;105.826;2023-04-02T04:15:08;85.45;;;50.15;;
76357;SDS011;65185;21.060;105.826;2023-04-02T04:20:19;78.93;;;48.30;;
76357;SDS011;65185;21.060;105.826;2023-04-02T04:22:50;82.07;;;48.50;;
76357;SDS011;65185;21.060;105.826;2023-04-02T04:25:24;71.85;;;45.30;;
76357;SDS011;65185;21.060;105.826;2023-04-02T04:28:02;74.65;;;46.33;;
76357;SDS011;65185;21.060;105.826;2023-04-02T04:33:27;62.55;;;40.15;;
76357;SDS011;65185;21.060;105.826;2023-04-02T04:36:04;64.88;;;40.00;;
76357;SDS011;65185;21.060;105.826;2023-04-02T04:38:45;54.63;;;35.00;;
76357;SDS011;65185;21.060;105.826;2023-04-02T04:41:23;52.13;;;33.72;;
76357;SDS011;65185;21.060;105.826;2023-04-02T04:46:41;51.90;;;33.58;;
76357;SDS011;65185;21.060;105.826;2023-04-02T04:54:54;46.45;;;29.92;;
76357;SDS011;65185;21.060;105.826;2023-04-02T04:57:22;45.92;;;29.63;;
76357;SDS011;65185;21.060;105.826;2023-04-02T05:02:56;46.05;;;29.38;;
76357;SDS011;65185;21.060;105.826;2023-04-02T05:05:37;46.10;;;31.02;;
76357;SDS011;65185;21.060;105.826;2023-04-02T05:08:47;42.60;;;28.40;;
76357;SDS011;65185;21.060;105.826;2023-04-02T05:11:03;40.25;;;26.65;;
76357;SDS011;65185;21.060;105.826;2023-04-02T05:16:30;42.75;;;27.25;;
76357;SDS011;65185;21.060;105.826;2023-04-02T05:27:20;51.83;;;32.40;;
76357;SDS011;65185;21.060;105.826;2023-04-02T05:30:03;53.28;;;33.38;;
76357;SDS011;65185;21.060;105.826;2023-04-02T05:32:53;61.88;;;38.22;;
76357;SDS011;65185;21.060;105.826;2023-04-02T05:35:35;56.80;;;36.42;;
76357;SDS011;65185;21.060;105.826;2023-04-02T05:38:06;53.78;;;37.38;;
76357;SDS011;65185;21.060;105.826;2023-04-02T05:40:40;58.83;;;38.60;;
76357;SDS011;65185;21.060;105.826;2023-04-02T05:43:12;58.10;;;38.75;;
76357;SDS011;65185;21.060;105.826;2023-04-02T05:45:44;60.13;;;40.22;;
76357;SDS011;65185;21.060;105.826;2023-04-02T05:48:50;67.32;;;41.78;;
76357;SDS011;65185;21.060;105.826;2023-04-02T05:51:56;66.88;;;40.97;;
76357;SDS011;65185;21.060;105.826;2023-04-02T05:54:22;66.13;;;41.95;;
76357;SDS011;65185;21.060;105.826;2023-04-02T05:57:18;66.18;;;42.08;;
76357;SDS011;65185;21.060;105.826;2023-04-02T05:59:57;69.20;;;41.80;;
76357;SDS011;65185;21.060;105.826;2023-04-02T06:02:36;69.38;;;41.25;;
76357;SDS011;65185;21.060;105.826;2023-04-02T06:05:14;72.28;;;41.65;;
76357;SDS011;65185;21.060;105.826;2023-04-02T06:10:23;69.45;;;40.85;;
76357;SDS011;65185;21.060;105.826;2023-04-02T06:12:54;77.35;;;42.78;;
76357;SDS011;65185;21.060;105.826;2023-04-02T06:15:27;74.80;;;42.28;;
76357;SDS011;65185;21.060;105.826;2023-04-02T06:18:05;69.13;;;40.40;;
76357;SDS011;65185;21.060;105.826;2023-04-02T06:20:39;71.43;;;40.63;;
76357;SDS011;65185;21.060;105.826;2023-04-02T06:23:49;80.55;;;43.33;;
76357;SDS011;65185;21.060;105.826;2023-04-02T06:26:23;77.63;;;42.95;;
76357;SDS011;65185;21.060;105.826;2023-04-02T06:34:16;79.20;;;43.08;;
76357;SDS011;65185;21.060;105.826;2023-04-02T06:36:47;81.80;;;45.40;;
76357;SDS011;65185;21.060;105.826;2023-04-02T06:39:19;77.00;;;44.10;;
76357;SDS011;65185;21.060;105.826;2023-04-02T06:42:02;76.72;;;44.30;;
76357;SDS011;65185;21.060;105.826;2023-04-02T06:44:41;79.05;;;46.13;;
76357;SDS011;65185;21.060;105.826;2023-04-02T06:50:15;81.72;;;48.05;;
76357;SDS011;65185;21.060;105.826;2023-04-02T06:52:49;75.40;;;45.78;;
76357;SDS011;65185;21.060;105.826;2023-04-02T06:57:53;76.38;;;47.03;;
76357;SDS011;65185;21.060;105.826;2023-04-02T07:02:59;85.95;;;49.97;;
76357;SDS011;65185;21.060;105.826;2023-04-02T07:05:30;91.40;;;52.70;;
76357;SDS011;65185;21.060;105.826;2023-04-02T07:07:57;91.65;;;54.38;;
76357;SDS011;65185;21.060;105.826;2023-04-02T07:10:23;96.32;;;55.85;;
76357;SDS011;65185;21.060;105.826;2023-04-02T07:12:50;98.38;;;55.63;;
76357;SDS011;65185;21.060;105.826;2023-04-02T07:15:17;90.90;;;54.78;;
76357;SDS011;65185;21.060;105.826;2023-04-02T07:17:44;101.78;;;58.22;;
76357;SDS011;65185;21.060;105.826;2023-04-02T07:20:31;103.00;;;56.60;;
76357;SDS011;65185;21.060;105.826;2023-04-02T07:23:02;105.30;;;58.97;;
76357;SDS011;65185;21.060;105.826;2023-04-02T07:25:29;104.88;;;59.47;;
76357;SDS011;65185;21.060;105.826;2023-04-02T07:27:55;99.43;;;57.45;;
76357;SDS011;65185;21.060;105.826;2023-04-02T07:30:22;117.32;;;63.95;;
76357;SDS011;65185;21.060;105.826;2023-04-02T07:32:48;122.53;;;64.13;;
76357;SDS011;65185;21.060;105.826;2023-04-02T07:35:15;119.78;;;64.97;;
76357;SDS011;65185;21.060;105.826;2023-04-02T07:37:41;112.00;;;58.88;;
76357;SDS011;65185;21.060;105.826;2023-04-02T07:40:14;118.78;;;62.38;;
76357;SDS011;65185;21.060;105.826;2023-04-02T07:42:43;109.45;;;58.97;;
76357;SDS011;65185;21.060;105.826;2023-04-02T07:45:10;125.45;;;63.10;;
76357;SDS011;65185;21.060;105.826;2023-04-02T07:47:37;121.05;;;61.63;;
76357;SDS011;65185;21.060;105.826;2023-04-02T07:50:04;117.05;;;61.60;;
76357;SDS011;65185;21.060;105.826;2023-04-02T07:52:32;119.18;;;63.22;;
76357;SDS011;65185;21.060;105.826;2023-04-02T07:55:03;112.70;;;60.45;;
76357;SDS011;65185;21.060;105.826;2023-04-02T07:57:37;115.47;;;63.17;;
76357;SDS011;65185;21.060;105.826;2023-04-02T08:00:15;118.47;;;63.88;;
76357;SDS011;65185;21.060;105.826;2023-04-02T08:02:42;123.55;;;64.07;;
76357;SDS011;65185;21.060;105.826;2023-04-02T08:05:08;125.88;;;66.35;;
76357;SDS011;65185;21.060;105.826;2023-04-02T08:07:35;124.70;;;65.03;;
76357;SDS011;65185;21.060;105.826;2023-04-02T08:10:03;117.82;;;60.78;;
76357;SDS011;65185;21.060;105.826;2023-04-02T08:12:31;108.53;;;58.22;;
76357;SDS011;65185;21.060;105.826;2023-04-02T08:14:57;111.95;;;60.50;;
76357;SDS011;65185;21.060;105.826;2023-04-02T08:17:24;111.65;;;57.38;;
76357;SDS011;65185;21.060;105.826;2023-04-02T08:19:58;109.88;;;56.80;;
76357;SDS011;65185;21.060;105.826;2023-04-02T08:22:28;109.60;;;56.20;;
76357;SDS011;65185;21.060;105.826;2023-04-02T08:24:55;105.75;;;55.92;;
76357;SDS011;65185;21.060;105.826;2023-04-02T08:27:22;114.97;;;55.53;;
76357;SDS011;65185;21.060;105.826;2023-04-02T08:29:49;110.28;;;56.92;;
76357;SDS011;65185;21.060;105.826;2023-04-02T08:32:16;113.95;;;56.75;;
76357;SDS011;65185;21.060;105.826;2023-04-02T08:34:43;115.80;;;56.28;;
76357;SDS011;65185;21.060;105.826;2023-04-02T08:37:10;113.18;;;56.70;;
76357;SDS011;65185;21.060;105.826;2023-04-02T08:39:38;124.88;;;58.53;;
76357;SDS011;65185;21.060;105.826;2023-04-02T08:44:42;121.47;;;57.80;;
76357;SDS011;65185;21.060;105.826;2023-04-02T08:47:16;115.38;;;58.47;;
76357;SDS011;65185;21.060;105.826;2023-04-02T08:52:29;105.95;;;53.30;;
76357;SDS011;65185;21.060;105.826;2023-04-02T08:55:03;113.38;;;57.92;;
76357;SDS011;65185;21.060;105.826;2023-04-02T08:58:06;125.38;;;58.42;;
76357;SDS011;65185;21.060;105.826;2023-04-02T09:00:41;129.55;;;59.80;;
76357;SDS011;65185;21.060;105.826;2023-04-02T09:05:41;115.85;;;56.63;;
76357;SDS011;65185;21.060;105.826;2023-04-02T09:08:20;120.60;;;56.92;;
76357;SDS011;65185;21.060;105.826;2023-04-02T09:13:32;112.15;;;54.35;;
76357;SDS011;65185;21.060;105.826;2023-04-02T09:16:12;111.72;;;56.58;;
76357;SDS011;65185;21.060;105.826;2023-04-02T09:18:41;116.70;;;54.40;;
76357;SDS011;65185;21.060;105.826;2023-04-02T09:21:29;118.45;;;55.95;;
76357;SDS011;65185;21.060;105.826;2023-04-02T09:23:57;114.28;;;54.50;;
76357;SDS011;65185;21.060;105.826;2023-04-02T09:26:29;114.28;;;56.28;;
76357;SDS011;65185;21.060;105.826;2023-04-02T09:31:43;101.25;;;54.00;;
76357;SDS011;65185;21.060;105.826;2023-04-02T09:34:26;106.40;;;54.28;;
76357;SDS011;65185;21.060;105.826;2023-04-02T09:39:42;109.72;;;54.58;;
76357;SDS011;65185;21.060;105.826;2023-04-02T09:45:21;109.35;;;52.70;;
76357;SDS011;65185;21.060;105.826;2023-04-02T09:47:56;109.53;;;52.35;;
76357;SDS011;65185;21.060;105.826;2023-04-02T09:50:28;104.25;;;51.03;;
76357;SDS011;65185;21.060;105.826;2023-04-02T09:52:57;101.53;;;54.15;;
76357;SDS011;65185;21.060;105.826;2023-04-02T09:55:41;104.55;;;53.35;;
76357;SDS011;65185;21.060;105.826;2023-04-02T09:58:12;99.03;;;51.50;;
76357;SDS011;65185;21.060;105.826;2023-04-02T10:00:50;108.40;;;52.55;;
76357;SDS011;65185;21.060;105.826;2023-04-02T10:03:25;103.93;;;51.03;;
76357;SDS011;65185;21.060;105.826;2023-04-02T10:06:11;112.68;;;54.95;;
76357;SDS011;65185;21.060;105.826;2023-04-02T10:08:40;122.18;;;56.55;;
76357;SDS011;65185;21.060;105.826;2023-04-02T10:11:50;117.18;;;55.45;;
76357;SDS011;65185;21.060;105.826;2023-04-02T10:14:00;121.35;;;56.00;;
76357;SDS011;65185;21.060;105.826;2023-04-02T10:16:40;111.07;;;53.65;;
76357;SDS011;65185;21.060;105.826;2023-04-02T10:21:54;114.38;;;54.53;;
76357;SDS011;65185;21.060;105.826;2023-04-02T10:24:22;115.88;;;55.40;;
76357;SDS011;65185;21.060;105.826;2023-04-02T10:35:01;111.72;;;53.28;;
76357;SDS011;65185;21.060;105.826;2023-04-02T10:46:04;113.22;;;57.28;;
76357;SDS011;65185;21.060;105.826;2023-04-02T10:51:43;117.10;;;57.75;;
76357;SDS011;65185;21.060;105.826;2023-04-02T10:57:06;114.25;;;54.85;;
76357;SDS011;65185;21.060;105.826;2023-04-02T10:59:38;125.15;;;56.72;;
76357;SDS011;65185;21.060;105.826;2023-04-02T11:05:31;113.72;;;60.08;;
76357;SDS011;65185;21.060;105.826;2023-04-02T11:10:51;120.00;;;60.45;;
76357;SDS011;65185;21.060;105.826;2023-04-02T11:16:04;115.07;;;62.78;;
76357;SDS011;65185;21.060;105.826;2023-04-02T11:18:31;126.20;;;66.97;;
76357;SDS011;65185;21.060;105.826;2023-04-02T11:21:06;121.43;;;66.63;;
76357;SDS011;65185;21.060;105.826;2023-04-02T11:24:00;117.10;;;64.10;;
76357;SDS011;65185;21.060;105.826;2023-04-02T11:37:37;124.53;;;65.00;;
76357;SDS011;65185;21.060;105.826;2023-04-02T11:42:47;121.47;;;59.40;;
76357;SDS011;65185;21.060;105.826;2023-04-02T11:50:36;100.03;;;52.22;;
76357;SDS011;65185;21.060;105.826;2023-04-02T11:55:43;97.38;;;52.67;;
76357;SDS011;65185;21.060;105.826;2023-04-02T12:07:26;91.35;;;51.00;;
76357;SDS011;65185;21.060;105.826;2023-04-02T12:09:46;90.90;;;49.53;;
76357;SDS011;65185;21.060;105.826;2023-04-02T12:12:37;94.28;;;53.00;;
76357;SDS011;65185;21.060;105.826;2023-04-02T12:18:28;89.75;;;50.80;;
76357;SDS011;65185;21.060;105.826;2023-04-02T12:20:53;87.28;;;52.03;;
76357;SDS011;65185;21.060;105.826;2023-04-02T12:23:28;85.35;;;51.05;;
76357;SDS011;65185;21.060;105.826;2023-04-02T12:26:01;86.38;;;51.03;;
76357;SDS011;65185;21.060;105.826;2023-04-02T12:28:33;79.65;;;47.60;;
76357;SDS011;65185;21.060;105.826;2023-04-02T12:33:42;76.82;;;47.58;;
76357;SDS011;65185;21.060;105.826;2023-04-02T12:38:49;76.32;;;44.15;;
76357;SDS011;65185;21.060;105.826;2023-04-02T12:41:30;75.57;;;44.90;;
76357;SDS011;65185;21.060;105.826;2023-04-02T12:44:10;77.93;;;44.22;;
76357;SDS011;65185;21.060;105.826;2023-04-02T12:46:46;79.80;;;46.55;;
76357;SDS011;65185;21.060;105.826;2023-04-02T12:51:53;76.57;;;45.72;;
76357;SDS011;65185;21.060;105.826;2023-04-02T12:54:21;74.70;;;44.85;;
76357;SDS011;65185;21.060;105.826;2023-04-02T12:56:49;72.90;;;45.15;;
76357;SDS011;65185;21.060;105.826;2023-04-02T13:02:15;74.85;;;43.60;;
76357;SDS011;65185;21.060;105.826;2023-04-02T13:04:47;74.50;;;44.30;;
76357;SDS011;65185;21.060;105.826;2023-04-02T13:07:17;74.47;;;44.53;;
76357;SDS011;65185;21.060;105.826;2023-04-02T13:09:47;74.55;;;45.05;;
76357;SDS011;65185;21.060;105.826;2023-04-02T13:15:04;76.55;;;44.08;;
76357;SDS011;65185;21.060;105.826;2023-04-02T13:23:22;67.32;;;40.72;;
76357;SDS011;65185;21.060;105.826;2023-04-02T13:25:58;64.80;;;38.40;;
76357;SDS011;65185;21.060;105.826;2023-04-02T13:28:27;64.07;;;38.95;;
76357;SDS011;65185;21.060;105.826;2023-04-02T13:30:54;62.50;;;38.35;;
76357;SDS011;65185;21.060;105.826;2023-04-02T13:33:21;74.28;;;42.78;;
76357;SDS011;65185;21.060;105.826;2023-04-02T13:35:48;73.03;;;45.17;;
76357;SDS011;65185;21.060;105.826;2023-04-02T13:38:14;73.63;;;45.67;;
76357;SDS011;65185;21.060;105.826;2023-04-02T13:40:41;76.85;;;45.78;;
76357;SDS011;65185;21.060;105.826;2023-04-02T13:43:10;73.75;;;45.47;;
76357;SDS011;65185;21.060;105.826;2023-04-02T13:45:44;67.65;;;42.42;;
76357;SDS011;65185;21.060;105.826;2023-04-02T13:48:16;66.43;;;41.30;;
76357;SDS011;65185;21.060;105.826;2023-04-02T13:50:43;67.65;;;42.17;;
76357;SDS011;65185;21.060;105.826;2023-04-02T13:53:21;70.18;;;42.38;;
76357;SDS011;65185;21.060;105.826;2023-04-02T13:55:53;75.07;;;42.78;;
76357;SDS011;65185;21.060;105.826;2023-04-02T13:58:20;67.60;;;40.38;;
76357;SDS011;65185;21.060;105.826;2023-04-02T14:00:53;65.72;;;39.63;;
76357;SDS011;65185;21.060;105.826;2023-04-02T14:03:21;70.20;;;42.80;;
76357;SDS011;65185;21.060;105.826;2023-04-02T14:08:46;72.47;;;42.10;;
76357;SDS011;65185;21.060;105.826;2023-04-02T14:17:17;69.88;;;41.97;;
76357;SDS011;65185;21.060;105.826;2023-04-02T14:20:18;71.03;;;43.13;;
76357;SDS011;65185;21.060;105.826;2023-04-02T14:31:42;86.70;;;47.97;;
76357;SDS011;65185;21.060;105.826;2023-04-02T14:34:31;93.95;;;50.67;;
76357;SDS011;65185;21.060;105.826;2023-04-02T14:37:09;95.40;;;51.00;;
76357;SDS011;65185;21.060;105.826;2023-04-02T14:39:54;89.32;;;49.53;;
76357;SDS011;65185;21.060;105.826;2023-04-02T14:42:34;95.60;;;50.40;;
76357;SDS011;65185;21.060;105.826;2023-04-02T14:47:56;91.70;;;50.42;;
76357;SDS011;65185;21.060;105.826;2023-04-02T14:50:38;95.72;;;51.28;;
76357;SDS011;65185;21.060;105.826;2023-04-02T14:53:18;85.38;;;46.78;;
76357;SDS011;65185;21.060;105.826;2023-04-02T14:55:52;84.85;;;46.30;;
76357;SDS011;65185;21.060;105.826;2023-04-02T15:01:05;96.88;;;51.53;;
76357;SDS011;65185;21.060;105.826;2023-04-02T15:03:42;99.20;;;50.90;;
76357;SDS011;65185;21.060;105.826;2023-04-02T15:06:22;100.75;;;53.65;;
76357;SDS011;65185;21.060;105.826;2023-04-02T15:11:58;96.72;;;52.30;;
76357;SDS011;65185;21.060;105.826;2023-04-02T15:14:46;93.53;;;50.88;;
76357;SDS011;65185;21.060;105.826;2023-04-02T15:17:19;98.15;;;53.10;;
76357;SDS011;65185;21.060;105.826;2023-04-02T15:19:45;100.05;;;53.33;;
76357;SDS011;65185;21.060;105.826;2023-04-02T15:22:19;97.60;;;53.25;;
76357;SDS011;65185;21.060;105.826;2023-04-02T15:30:34;94.97;;;50.78;;
76357;SDS011;65185;21.060;105.826;2023-04-02T15:41:40;83.57;;;46.10;;
76357;SDS011;65185;21.060;105.826;2023-04-02T15:44:19;74.97;;;42.20;;
76357;SDS011;65185;21.060;105.826;2023-04-02T16:06:27;81.75;;;46.20;;
76357;SDS011;65185;21.060;105.826;2023-04-02T16:09:27;80.95;;;47.28;;
76357;SDS011;65185;21.060;105.826;2023-04-02T16:12:17;82.05;;;46.55;;
76357;SDS011;65185;21.060;105.826;2023-04-02T16:14:45;80.35;;;47.90;;
76357;SDS011;65185;21.060;105.826;2023-04-02T16:17:18;84.95;;;48.65;;
76357;SDS011;65185;21.060;105.826;2023-04-02T16:19:52;80.72;;;48.03;;
76357;SDS011;65185;21.060;105.826;2023-04-02T16:22:40;90.93;;;51.20;;
76357;SDS011;65185;21.060;105.826;2023-04-02T16:27:40;86.60;;;51.20;;
76357;SDS011;65185;21.060;105.826;2023-04-02T16:33:15;87.90;;;50.78;;
76357;SDS011;65185;21.060;105.826;2023-04-02T16:39:26;88.22;;;50.38;;
76357;SDS011;65185;21.060;105.826;2023-04-02T16:50:29;93.28;;;51.88;;
76357;SDS011;65185;21.060;105.826;2023-04-02T16:58:10;86.72;;;49.08;;
76357;SDS011;65185;21.060;105.826;2023-04-02T17:06:56;82.50;;;48.95;;
76357;SDS011;65185;21.060;105.826;2023-04-02T17:09:48;84.25;;;48.80;;
76357;SDS011;65185;21.060;105.826;2023-04-02T17:12:20;85.22;;;47.88;;
76357;SDS011;65185;21.060;105.826;2023-04-02T17:14:57;85.72;;;48.72;;
76357;SDS011;65185;21.060;105.826;2023-04-02T17:17:27;85.55;;;47.15;;
76357;SDS011;65185;21.060;105.826;2023-04-02T17:19:57;83.15;;;46.47;;
76357;SDS011;65185;21.060;105.826;2023-04-02T17:22:25;83.68;;;49.28;;
76357;SDS011;65185;21.060;105.826;2023-04-02T17:24:56;105.25;;;54.47;;
76357;SDS011;65185;21.060;105.826;2023-04-02T17:27:27;91.32;;;52.33;;
76357;SDS011;65185;21.060;105.826;2023-04-02T17:30:43;80.78;;;49.35;;
76357;SDS011;65185;21.060;105.826;2023-04-02T17:33:15;85.18;;;48.70;;
76357;SDS011;65185;21.060;105.826;2023-04-02T17:40:53;87.03;;;47.63;;
76357;SDS011;65185;21.060;105.826;2023-04-02T17:43:48;80.68;;;46.67;;
76357;SDS011;65185;21.060;105.826;2023-04-02T17:49:12;82.95;;;45.13;;
76357;SDS011;65185;21.060;105.826;2023-04-02T17:51:50;82.75;;;44.38;;
76357;SDS011;65185;21.060;105.826;2023-04-02T17:57:43;84.32;;;45.03;;
76357;SDS011;65185;21.060;105.826;2023-04-02T18:06:27;75.50;;;42.08;;
76357;SDS011;65185;21.060;105.826;2023-04-02T18:11:56;72.63;;;40.85;;
76357;SDS011;65185;21.060;105.826;2023-04-02T18:31:04;67.85;;;38.65;;
76357;SDS011;65185;21.060;105.826;2023-04-02T18:45:32;71.25;;;36.45;;
76357;SDS011;65185;21.060;105.826;2023-04-02T18:50:41;73.45;;;36.72;;
76357;SDS011;65185;21.060;105.826;2023-04-02T18:53:15;60.88;;;35.22;;
76357;SDS011;65185;21.060;105.826;2023-04-02T18:55:45;62.70;;;35.05;;
76357;SDS011;65185;21.060;105.826;2023-04-02T18:58:23;65.28;;;35.65;;
76357;SDS011;65185;21.060;105.826;2023-04-02T19:01:12;71.78;;;37.00;;
76357;SDS011;65185;21.060;105.826;2023-04-02T19:03:48;75.13;;;36.88;;
76357;SDS011;65185;21.060;105.826;2023-04-02T19:06:19;68.43;;;37.95;;
76357;SDS011;65185;21.060;105.826;2023-04-02T19:08:59;69.45;;;37.25;;
76357;SDS011;65185;21.060;105.826;2023-04-02T19:11:32;66.53;;;35.47;;
76357;SDS011;65185;21.060;105.826;2023-04-02T19:14:17;65.88;;;36.58;;
76357;SDS011;65185;21.060;105.826;2023-04-02T19:27:59;66.10;;;37.97;;
76357;SDS011;65185;21.060;105.826;2023-04-02T19:41:43;70.70;;;38.42;;
76357;SDS011;65185;21.060;105.826;2023-04-02T19:44:12;70.15;;;37.90;;
76357;SDS011;65185;21.060;105.826;2023-04-02T19:46:41;72.20;;;37.58;;
76357;SDS011;65185;21.060;105.826;2023-04-02T19:51:42;63.58;;;35.85;;
76357;SDS011;65185;21.060;105.826;2023-04-02T19:54:08;65.93;;;37.85;;
76357;SDS011;65185;21.060;105.826;2023-04-02T19:56:35;70.25;;;37.55;;
76357;SDS011;65185;21.060;105.826;2023-04-02T19:59:01;68.82;;;36.90;;
76357;SDS011;65185;21.060;105.826;2023-04-02T20:01:28;62.45;;;36.88;;
76357;SDS011;65185;21.060;105.826;2023-04-02T20:03:55;77.05;;;39.35;;
76357;SDS011;65185;21.060;105.826;2023-04-02T20:06:21;74.05;;;38.80;;
76357;SDS011;65185;21.060;105.826;2023-04-02T20:08:48;65.20;;;35.83;;
76357;SDS011;65185;21.060;105.826;2023-04-02T20:11:14;64.22;;;36.15;;
76357;SDS011;65185;21.060;105.826;2023-04-02T20:13:41;66.50;;;36.72;;
76357;SDS011;65185;21.060;105.826;2023-04-02T20:16:07;70.00;;;37.47;;
76357;SDS011;65185;21.060;105.826;2023-04-02T20:18:33;55.10;;;33.95;;
76357;SDS011;65185;21.060;105.826;2023-04-02T20:21:05;66.35;;;36.20;;
76357;SDS011;65185;21.060;105.826;2023-04-02T20:23:32;64.63;;;36.10;;
76357;SDS011;65185;21.060;105.826;2023-04-02T20:26:00;68.72;;;36.83;;
76357;SDS011;65185;21.060;105.826;2023-04-02T20:28:28;70.78;;;37.88;;
76357;SDS011;65185;21.060;105.826;2023-04-02T20:31:06;67.18;;;38.13;;
76357;SDS011;65185;21.060;105.826;2023-04-02T20:33:35;71.07;;;38.20;;
76357;SDS011;65185;21.060;105.826;2023-04-02T20:36:03;63.85;;;35.83;;